Time;durP1;ratioP1;P1;durP2;ratioP2;P2;SDS_P1;SDS_P2;PMS_P1;PMS_P2;Temp;Humidity;BMP_temperature;BMP_pressure;BME280_temperature;BME280_humidity;BME280_pressure;Samples;Min_cycle;Max_cycle;Signal;HPM_P1;HPM_P2
2022/01/01 00:00:39;;;;;;;71.22;49.30;;;12.10;99.90;;;;;;5127947;27;20410;-60
2022/01/01 00:03:04;;;;;;;70.68;50.03;;;12.10;99.90;;;;;;5129629;27;20080;-60
2022/01/01 00:05:30;;;;;;;64.70;42.55;;;12.10;99.90;;;;;;5127946;27;20027;-60
2022/01/01 00:07:57;;;;;;;61.97;44.28;;;12.20;99.90;;;;;;5129541;27;20035;-60
2022/01/01 00:10:22;;;;;;;61.38;42.85;;;12.20;99.90;;;;;;5127874;27;20023;-60
2022/01/01 00:12:48;;;;;;;70.63;45.13;;;12.20;99.90;;;;;;5129862;27;20084;-60
2022/01/01 00:15:15;;;;;;;53.00;37.60;;;12.20;99.90;;;;;;5127858;27;20094;-60
2022/01/01 00:17:41;;;;;;;50.70;35.70;;;12.10;99.90;;;;;;5129405;27;20027;-60
2022/01/01 00:20:09;;;;;;;51.45;37.00;;;12.10;99.90;;;;;;5127666;27;20030;-60
2022/01/01 00:22:39;;;;;;;44.55;32.40;;;12.10;99.90;;;;;;5129430;27;20444;-60
2022/01/01 00:25:05;;;;;;;56.90;37.80;;;12.10;99.90;;;;;;5127599;27;20057;-60
2022/01/01 00:27:30;;;;;;;47.88;34.67;;;12.10;99.90;;;;;;5129193;27;20134;-60
2022/01/01 00:29:56;;;;;;;45.08;28.38;;;12.10;99.90;;;;;;5127569;28;20110;-60
2022/01/01 00:32:21;;;;;;;46.63;31.88;;;12.20;99.90;;;;;;5129112;28;20466;-60
2022/01/01 00:34:47;;;;;;;54.05;34.55;;;12.10;99.90;;;;;;5127752;27;20031;-60
2022/01/01 00:37:12;;;;;;;49.78;33.88;;;12.10;99.90;;;;;;5129258;27;20034;-60
2022/01/01 00:39:38;;;;;;;50.65;32.38;;;12.20;99.90;;;;;;5127434;28;20409;-60
2022/01/01 00:42:04;;;;;;;47.88;32.78;;;12.10;99.90;;;;;;5121901;28;20111;-59
2022/01/01 00:44:30;;;;;;;59.60;39.35;;;12.20;99.90;;;;;;5127549;28;20466;-59
2022/01/01 00:46:56;;;;;;;59.08;37.92;;;12.20;99.90;;;;;;5129173;27;20027;-59
2022/01/01 00:49:22;;;;;;;46.80;31.80;;;12.20;99.90;;;;;;5126986;27;20494;-58
2022/01/01 00:51:47;;;;;;;44.55;28.67;;;12.20;99.90;;;;;;5129434;28;20023;-80
2022/01/01 00:54:13;;;;;;;45.10;27.45;;;12.20;99.90;;;;;;5128219;27;20039;-79
2022/01/01 00:56:38;;;;;;;34.00;22.45;;;12.20;99.90;;;;;;5129979;28;20475;-79
2022/01/01 00:59:04;;;;;;;36.80;23.90;;;12.10;99.90;;;;;;5128212;28;20532;-79
2022/01/01 01:01:29;;;;;;;32.75;21.52;;;12.10;99.90;;;;;;5130326;27;20030;-79
2022/01/01 01:03:55;;;;;;;29.05;19.60;;;12.10;99.90;;;;;;5128108;27;20031;-79
2022/01/01 01:06:20;;;;;;;28.83;18.95;;;12.10;99.90;;;;;;5129879;28;20341;-79
2022/01/01 01:08:46;;;;;;;26.58;17.88;;;12.10;99.90;;;;;;5128394;28;20039;-80
2022/01/01 01:11:11;;;;;;;23.73;16.05;;;12.10;99.90;;;;;;5130035;27;20110;-80
2022/01/01 01:13:40;;;;;;;26.48;15.27;;;12.10;99.90;;;;;;5128192;27;22393;-79
2022/01/01 01:16:06;;;;;;;28.52;18.35;;;12.10;99.90;;;;;;5129904;27;20112;-80
2022/01/01 01:18:31;;;;;;;23.35;16.23;;;12.20;99.90;;;;;;5128136;27;20058;-80
2022/01/01 01:20:57;;;;;;;23.05;14.82;;;12.20;99.90;;;;;;5129976;28;20477;-79
2022/01/01 01:23:22;;;;;;;18.83;12.82;;;12.10;99.90;;;;;;5127753;28;20035;-79
2022/01/01 01:25:48;;;;;;;18.55;11.90;;;12.10;99.90;;;;;;5130128;27;20459;-79
2022/01/01 01:28:14;;;;;;;18.98;11.43;;;12.10;99.90;;;;;;5129600;27;20047;-79
2022/01/01 01:30:40;;;;;;;14.68;9.95;;;12.10;99.90;;;;;;5127907;27;20088;-78
2022/01/01 01:33:10;;;;;;;15.05;10.43;;;12.10;99.90;;;;;;5129739;27;20035;-79
2022/01/01 01:35:35;;;;;;;14.57;9.80;;;12.10;99.90;;;;;;5130131;27;20030;-79
2022/01/01 01:38:02;;;;;;;12.10;8.85;;;12.10;99.90;;;;;;5132881;27;20035;-79
2022/01/01 01:40:27;;;;;;;12.68;8.38;;;12.10;99.90;;;;;;5131748;27;20027;-80
2022/01/01 01:42:53;;;;;;;14.35;9.13;;;12.10;99.90;;;;;;5129406;27;20053;-79
2022/01/01 01:45:21;;;;;;;11.18;7.88;;;12.10;99.90;;;;;;5131586;27;20046;-80
2022/01/01 01:47:48;;;;;;;13.75;8.73;;;12.10;99.90;;;;;;5133368;27;20035;-80
2022/01/01 01:50:15;;;;;;;11.18;7.50;;;12.10;99.90;;;;;;5131678;27;20474;-79
2022/01/01 01:52:45;;;;;;;16.13;9.23;;;12.10;99.90;;;;;;5132804;27;20037;-79
2022/01/01 01:55:11;;;;;;;12.15;7.22;;;12.00;99.90;;;;;;5131305;27;20031;-79
2022/01/01 01:57:39;;;;;;;11.43;7.85;;;12.00;99.90;;;;;;5133027;27;20031;-80
2022/01/01 02:00:45;;;;;;;10.07;6.72;;;12.00;99.90;;;;;;5131385;27;20224;-79
2022/01/01 02:03:09;;;;;;;11.95;7.45;;;12.00;99.90;;;;;;5112409;28;20028;-79
2022/01/01 02:05:35;;;;;;;9.93;6.93;;;12.00;99.90;;;;;;5131211;27;20038;-79
2022/01/01 02:08:02;;;;;;;12.48;7.00;;;12.00;99.90;;;;;;5132432;27;20074;-78
2022/01/01 02:10:27;;;;;;;10.13;6.70;;;12.00;99.90;;;;;;5130960;27;20141;-79
2022/01/01 02:12:55;;;;;;;10.98;7.05;;;12.00;99.90;;;;;;5132135;27;20502;-66
2022/01/01 02:18:15;;;;;;;11.63;6.53;;;12.00;99.90;;;;;;5111643;28;20088;-64
2022/01/01 02:20:40;;;;;;;12.52;7.72;;;12.00;99.90;;;;;;5129315;27;20023;-64
2022/01/01 02:23:46;;;;;;;9.75;6.57;;;12.00;99.90;;;;;;5118150;27;20058;-64
2022/01/01 02:27:11;;;;;;;10.32;6.80;;;12.00;99.90;;;;;;5131930;27;20243;-64
2022/01/01 02:30:36;;;;;;;10.30;6.30;;;12.00;99.90;;;;;;5127617;27;20043;-64
2022/01/01 02:34:02;;;;;;;9.70;6.10;;;11.90;99.90;;;;;;5123534;27;20081;-64
2022/01/01 02:37:27;;;;;;;8.38;6.07;;;11.90;99.90;;;;;;5127503;27;20039;-63
2022/01/01 02:40:53;;;;;;;11.50;6.38;;;11.90;99.90;;;;;;5110880;28;20043;-64
2022/01/01 02:44:24;;;;;;;9.27;6.25;;;11.90;99.90;;;;;;5121278;27;20386;-64
2022/01/01 02:47:49;;;;;;;7.32;5.18;;;11.90;99.90;;;;;;5127700;27;20034;-63
2022/01/01 02:51:15;;;;;;;10.63;7.13;;;11.90;99.90;;;;;;5110866;28;20040;-64
2022/01/01 02:54:40;;;;;;;8.30;6.07;;;11.90;99.90;;;;;;5128817;27;20076;-63
2022/01/01 02:58:05;;;;;;;8.93;5.93;;;11.90;99.90;;;;;;5123496;27;20039;-64
2022/01/01 03:01:31;;;;;;;9.32;6.43;;;11.90;99.90;;;;;;5125102;27;20035;-63
2022/01/01 03:04:56;;;;;;;11.48;6.50;;;11.80;99.90;;;;;;5124897;27;20449;-64
2022/01/01 03:08:22;;;;;;;11.40;6.47;;;11.80;99.90;;;;;;5123206;27;20047;-64
2022/01/01 03:11:47;;;;;;;13.50;5.90;;;11.90;99.90;;;;;;5124998;27;20122;-64
2022/01/01 03:15:12;;;;;;;8.77;5.53;;;11.90;99.90;;;;;;5124724;27;20039;-64
2022/01/01 03:18:38;;;;;;;13.43;7.15;;;11.90;99.90;;;;;;5123055;27;20079;-63
2022/01/01 03:22:03;;;;;;;14.85;7.57;;;11.90;99.90;;;;;;5124459;27;20390;-64
2022/01/01 03:25:28;;;;;;;9.43;5.70;;;11.90;99.90;;;;;;5128310;27;20039;-64
2022/01/01 03:28:54;;;;;;;15.43;7.55;;;11.90;99.90;;;;;;5111792;27;20090;-63
2022/01/01 03:32:19;;;;;;;10.95;7.13;;;11.80;99.90;;;;;;5126526;27;20058;-63
2022/01/01 03:35:45;;;;;;;11.18;6.47;;;11.80;99.90;;;;;;5109676;27;20066;-63
2022/01/01 03:39:10;;;;;;;7.72;5.32;;;11.80;99.90;;;;;;5125134;27;20037;-63
2022/01/01 03:42:35;;;;;;;10.13;5.35;;;11.80;99.90;;;;;;5122386;27;20558;-63
2022/01/01 03:46:01;;;;;;;8.60;5.97;;;11.80;99.90;;;;;;5126211;27;20028;-64
2022/01/01 03:49:06;;;;;;;13.48;6.63;;;11.80;99.90;;;;;;5127294;27;20506;-63
2022/01/01 03:52:11;;;;;;;10.68;5.65;;;11.80;99.90;;;;;;5108334;27;20024;-63
2022/01/01 03:55:37;;;;;;;7.40;4.65;;;11.80;99.90;;;;;;5129992;27;20072;-63
2022/01/01 03:59:02;;;;;;;12.18;5.93;;;11.70;99.90;;;;;;5123176;27;20058;-63
2022/01/01 04:02:27;;;;;;;11.02;4.72;;;11.60;99.90;;;;;;5124457;27;20041;-63
2022/01/01 04:05:53;;;;;;;13.40;6.32;;;11.50;99.90;;;;;;5117390;27;20036;-63
2022/01/01 04:09:18;;;;;;;8.77;5.25;;;11.50;99.90;;;;;;5122140;27;20038;-64
2022/01/01 04:12:44;;;;;;;12.95;5.97;;;11.50;99.90;;;;;;5121851;27;20485;-64
2022/01/01 04:16:11;;;;;;;11.20;4.80;;;11.50;99.90;;;;;;5116480;27;20039;-64
2022/01/01 04:19:39;;;;;;;16.42;5.57;;;11.50;99.90;;;;;;5113648;27;20042;-63
2022/01/01 04:23:00;;;;;;;7.75;4.95;;;11.60;99.90;;;;;;5121902;27;20067;-63
2022/01/01 04:26:25;;;;;;;10.18;4.82;;;11.60;99.90;;;;;;5118743;27;20496;-63
2022/01/01 04:29:50;;;;;;;11.35;5.05;;;11.60;99.90;;;;;;5135133;27;20045;-63
2022/01/01 04:33:16;;;;;;;15.77;6.25;;;11.70;99.90;;;;;;5130444;27;20031;-64
2022/01/01 04:36:49;;;;;;;7.72;5.28;;;11.70;99.90;;;;;;5115007;28;20039;-64
2022/01/01 04:40:06;;;;;;;9.55;5.85;;;11.70;99.90;;;;;;5120204;28;20066;-64
2022/01/01 04:43:32;;;;;;;8.30;5.50;;;11.60;99.90;;;;;;5106666;28;20493;-63
2022/01/01 04:46:57;;;;;;;12.20;6.15;;;11.60;99.90;;;;;;5122931;28;20042;-63
2022/01/01 04:50:22;;;;;;;12.40;5.72;;;11.70;99.90;;;;;;5123771;28;20036;-63
2022/01/01 04:53:49;;;;;;;17.55;6.75;;;11.70;99.90;;;;;;5123367;28;20043;-60
2022/01/01 04:57:13;;;;;;;11.43;6.30;;;11.60;99.90;;;;;;5116286;28;20096;-61
2022/01/01 05:00:39;;;;;;;14.07;6.82;;;11.70;99.90;;;;;;5124182;28;20035;-60
2022/01/01 05:04:04;;;;;;;8.35;5.32;;;11.70;99.90;;;;;;5118681;28;20032;-61
2022/01/01 05:07:29;;;;;;;10.05;5.60;;;11.60;99.90;;;;;;5110988;28;20082;-59
2022/01/01 05:10:55;;;;;;;10.60;5.28;;;11.60;99.90;;;;;;5122581;27;20413;-60
2022/01/01 05:14:20;;;;;;;12.77;6.53;;;11.60;99.90;;;;;;5127367;27;20094;-60
2022/01/01 05:17:46;;;;;;;9.85;5.80;;;11.60;99.90;;;;;;5115257;27;20484;-60
2022/01/01 05:21:11;;;;;;;10.07;5.20;;;11.60;99.90;;;;;;5123044;27;20020;-60
2022/01/01 05:24:36;;;;;;;15.32;6.07;;;11.50;99.90;;;;;;5127859;27;20035;-60
2022/01/01 05:28:01;;;;;;;11.00;5.43;;;11.50;99.90;;;;;;5126981;27;20070;-60
2022/01/01 05:31:27;;;;;;;16.15;6.35;;;11.60;99.90;;;;;;5120346;27;20070;-61
2022/01/01 05:34:12;;;;;;;15.45;6.93;;;11.60;99.90;;;;;;5117812;27;20380;-61
2022/01/01 05:37:18;;;;;;;12.10;5.13;;;11.60;99.90;;;;;;5130506;27;20518;-61
2022/01/01 05:40:43;;;;;;;13.20;5.68;;;11.60;99.90;;;;;;5129652;27;20434;-60
2022/01/01 05:44:08;;;;;;;9.90;6.32;;;11.60;99.90;;;;;;5127696;27;20121;-60
2022/01/01 05:47:34;;;;;;;14.85;7.22;;;11.70;99.90;;;;;;5128746;27;20024;-60
2022/01/01 05:50:59;;;;;;;10.60;5.78;;;11.70;99.90;;;;;;5127595;27;20092;-60
2022/01/01 05:54:24;;;;;;;14.93;6.60;;;11.70;99.90;;;;;;5132656;27;20035;-60
2022/01/01 05:57:50;;;;;;;13.45;6.18;;;11.70;99.90;;;;;;5127764;27;20455;-60
2022/01/01 06:01:15;;;;;;;14.75;7.57;;;11.70;99.90;;;;;;5128495;27;20035;-60
2022/01/01 06:04:41;;;;;;;17.73;7.72;;;11.70;99.90;;;;;;5111789;28;20131;-60
2022/01/01 06:08:06;;;;;;;18.98;7.75;;;11.70;99.90;;;;;;5129674;27;20039;-60
2022/01/01 06:11:31;;;;;;;12.05;6.80;;;11.70;99.90;;;;;;5124274;27;20546;-60
2022/01/01 06:14:57;;;;;;;14.77;7.05;;;11.70;99.90;;;;;;5130064;27;20031;-61
2022/01/01 06:18:22;;;;;;;12.82;6.47;;;11.70;99.90;;;;;;5130076;27;20046;-60
2022/01/01 06:21:47;;;;;;;12.70;7.22;;;11.70;99.90;;;;;;5124846;27;20048;-60
2022/01/01 06:25:13;;;;;;;16.50;7.60;;;11.70;99.90;;;;;;5125805;27;20038;-60
2022/01/01 06:28:38;;;;;;;19.85;8.77;;;11.70;99.90;;;;;;5125399;27;20051;-60
2022/01/01 06:32:03;;;;;;;13.00;7.43;;;11.80;99.90;;;;;;5123869;27;20398;-60
2022/01/01 06:35:29;;;;;;;17.40;7.35;;;11.70;99.90;;;;;;5125515;27;20095;-60
2022/01/01 06:38:54;;;;;;;15.30;8.82;;;11.80;99.90;;;;;;5125844;27;20394;-60
2022/01/01 06:42:20;;;;;;;17.42;9.13;;;11.80;99.90;;;;;;5127709;27;20110;-59
2022/01/01 06:45:45;;;;;;;20.55;9.40;;;11.80;99.90;;;;;;5129572;27;20440;-59
2022/01/01 06:49:10;;;;;;;19.13;8.88;;;11.80;99.90;;;;;;5125425;27;20498;-61
2022/01/01 06:52:36;;;;;;;14.75;8.60;;;11.80;99.90;;;;;;5126478;27;20039;-60
2022/01/01 06:56:05;;;;;;;18.80;8.23;;;11.80;99.90;;;;;;5126510;27;20035;-60
2022/01/01 06:59:26;;;;;;;22.40;10.10;;;11.80;99.90;;;;;;5131058;27;20074;-60
2022/01/01 07:02:52;;;;;;;18.95;8.63;;;11.80;99.90;;;;;;5126770;27;20023;-60
2022/01/01 07:06:17;;;;;;;14.55;8.60;;;11.80;99.90;;;;;;5123187;27;20513;-60
2022/01/01 07:09:42;;;;;;;18.42;7.95;;;11.80;99.90;;;;;;5130885;27;20086;-60
2022/01/01 07:13:08;;;;;;;15.50;8.02;;;11.90;99.90;;;;;;5119497;27;20023;-60
2022/01/01 07:16:33;;;;;;;20.77;9.40;;;11.80;99.90;;;;;;5127214;27;20035;-60
2022/01/01 07:19:58;;;;;;;16.75;8.02;;;11.90;99.90;;;;;;5110450;28;20097;-60
2022/01/01 07:23:24;;;;;;;20.30;8.27;;;11.90;99.90;;;;;;5125260;27;20491;-60
2022/01/01 07:26:49;;;;;;;17.98;8.18;;;11.90;99.90;;;;;;5118733;27;20068;-60
2022/01/01 07:30:15;;;;;;;16.63;8.35;;;11.90;99.90;;;;;;5128164;27;20042;-60
2022/01/01 07:33:40;;;;;;;16.52;8.00;;;11.90;99.90;;;;;;5124958;27;20035;-60
2022/01/01 07:37:05;;;;;;;16.17;8.13;;;11.90;99.90;;;;;;5121892;27;20028;-60
2022/01/01 07:40:32;;;;;;;17.27;8.48;;;12.00;99.90;;;;;;5128037;27;20494;-60
2022/01/01 07:43:56;;;;;;;18.38;7.82;;;12.00;99.90;;;;;;5119193;27;20517;-60
2022/01/01 07:47:21;;;;;;;16.15;8.80;;;12.00;99.90;;;;;;5129167;27;20257;-61
2022/01/01 07:50:47;;;;;;;19.42;7.95;;;12.00;99.90;;;;;;5135645;27;20039;-59
2022/01/01 07:54:12;;;;;;;15.68;6.70;;;12.00;99.90;;;;;;5128474;27;20504;-60
2022/01/01 07:57:38;;;;;;;13.55;8.10;;;12.00;99.90;;;;;;5127176;27;20031;-60
2022/01/01 08:01:03;;;;;;;16.33;8.73;;;12.00;99.90;;;;;;5133297;27;20669;-60
2022/01/01 08:04:28;;;;;;;23.08;8.30;;;12.10;99.90;;;;;;5123872;27;20126;-60
2022/01/01 08:07:54;;;;;;;19.88;9.25;;;12.10;99.90;;;;;;5124603;27;20402;-60
2022/01/01 08:11:19;;;;;;;18.73;8.40;;;12.10;99.90;;;;;;5127105;27;20035;-60
2022/01/01 08:14:44;;;;;;;25.70;11.48;;;12.10;99.90;;;;;;5135403;27;20474;-61
2022/01/01 08:18:10;;;;;;;21.67;9.57;;;12.10;99.90;;;;;;5122208;27;20023;-61
2022/01/01 08:21:35;;;;;;;17.67;9.30;;;12.20;99.90;;;;;;5130883;27;20030;-61
2022/01/01 08:25:01;;;;;;;20.73;9.52;;;12.10;99.90;;;;;;5126528;27;20041;-61
2022/01/01 08:28:26;;;;;;;20.27;10.85;;;12.10;99.90;;;;;;5125706;27;20047;-61
2022/01/01 08:31:51;;;;;;;22.67;9.30;;;12.20;99.90;;;;;;5126766;28;20434;-61
2022/01/01 08:35:17;;;;;;;26.98;9.63;;;12.20;99.90;;;;;;5126379;28;20039;-61
2022/01/01 08:38:42;;;;;;;17.55;8.50;;;12.20;99.90;;;;;;5122063;28;20513;-61
2022/01/01 08:42:09;;;;;;;17.67;8.80;;;12.20;99.90;;;;;;5126653;28;20035;-61
2022/01/01 08:45:33;;;;;;;17.90;8.93;;;12.20;99.90;;;;;;5126540;27;20035;-61
2022/01/01 08:48:59;;;;;;;15.57;8.35;;;12.30;99.90;;;;;;5126145;27;20039;-61
2022/01/01 08:52:23;;;;;;;17.98;8.70;;;12.30;99.90;;;;;;5128820;27;20577;-49
2022/01/01 08:55:49;;;;;;;17.02;8.35;;;12.40;99.90;;;;;;5113113;28;20042;-46
2022/01/01 08:59:15;;;;;;;19.13;8.55;;;12.50;99.90;;;;;;5127540;27;20040;-48
2022/01/01 09:02:40;;;;;;;17.50;8.52;;;12.50;99.90;;;;;;5123867;27;20043;-50
2022/01/01 09:06:05;;;;;;;20.90;9.02;;;12.60;99.90;;;;;;5130093;27;20405;-45
2022/01/01 09:09:30;;;;;;;15.68;7.88;;;12.60;99.90;;;;;;5130961;27;20058;-47
2022/01/01 09:12:56;;;;;;;16.77;8.63;;;12.50;99.90;;;;;;5118083;27;20474;-49
2022/01/01 09:16:25;;;;;;;14.15;7.70;;;12.50;99.90;;;;;;5124927;27;20039;-49
2022/01/01 09:19:46;;;;;;;19.38;8.45;;;12.60;99.90;;;;;;5130564;27;20463;-50
2022/01/01 09:23:13;;;;;;;14.43;7.90;;;12.60;99.90;;;;;;5124965;27;20034;-52
2022/01/01 09:26:37;;;;;;;19.23;7.07;;;12.60;99.90;;;;;;5122968;27;20417;-46
2022/01/01 09:30:02;;;;;;;18.05;9.30;;;12.60;99.90;;;;;;5129308;27;20116;-49
2022/01/01 09:33:31;;;;;;;14.63;7.97;;;12.70;99.90;;;;;;5126571;27;20503;-50
2022/01/01 09:36:57;;;;;;;18.33;8.63;;;12.70;99.90;;;;;;5125876;27;20027;-52
2022/01/01 09:40:21;;;;;;;17.60;8.18;;;12.70;99.90;;;;;;5109661;28;20064;-49
2022/01/01 09:43:46;;;;;;;20.02;9.05;;;12.80;99.90;;;;;;5124368;27;20042;-48
2022/01/01 09:47:12;;;;;;;24.05;9.20;;;12.80;99.90;;;;;;5114553;27;20062;-51
2022/01/01 09:50:37;;;;;;;22.27;9.77;;;12.80;99.90;;;;;;5109318;28;20054;-47
2022/01/01 09:54:03;;;;;;;20.98;9.70;;;12.80;99.90;;;;;;5128373;27;20479;-48
2022/01/01 09:57:28;;;;;;;24.08;10.10;;;12.80;99.90;;;;;;5125628;27;20042;-50
2022/01/01 10:00:53;;;;;;;19.25;9.13;;;12.80;99.90;;;;;;5128064;27;20151;-51
2022/01/01 10:04:19;;;;;;;16.98;8.82;;;12.80;99.90;;;;;;5128906;27;20042;-48
2022/01/01 10:07:47;;;;;;;16.85;7.90;;;12.80;99.90;;;;;;5119521;27;20532;-48
2022/01/01 10:11:12;;;;;;;19.67;8.45;;;12.80;99.90;;;;;;5129704;27;20047;-48
2022/01/01 10:14:38;;;;;;;20.52;7.93;;;12.90;99.90;;;;;;5124843;27;20034;-47
2022/01/01 10:18:03;;;;;;;16.77;8.68;;;12.90;99.90;;;;;;5126659;27;20039;-48
2022/01/01 10:21:34;;;;;;;16.17;7.47;;;12.90;99.90;;;;;;5122422;27;20035;-47
2022/01/01 10:28:21;;;;;;;21.10;8.40;;;13.00;99.90;;;;;;5121367;27;20540;-47
2022/01/01 10:31:43;;;;;;;17.38;8.30;;;12.90;99.90;;;;;;5123009;27;20042;-46
2022/01/01 10:35:09;;;;;;;22.88;9.55;;;12.90;99.90;;;;;;5112133;27;20118;-50
2022/01/01 10:38:14;;;;;;;13.73;7.57;;;12.90;99.90;;;;;;5120019;27;20065;-47
2022/01/01 10:41:46;;;;;;;20.30;8.27;;;13.00;99.90;;;;;;5123950;27;20587;-47
2022/01/01 10:45:11;;;;;;;16.67;8.20;;;13.00;99.90;;;;;;5115309;27;20502;-46
2022/01/01 10:48:56;;;;;;;20.33;8.10;;;13.00;99.90;;;;;;5127460;27;20092;-51
2022/01/01 10:51:36;;;;;;;15.90;8.75;;;13.00;99.90;;;;;;5118261;27;20027;-47
2022/01/01 10:54:02;;;;;;;15.13;7.22;;;13.10;99.90;;;;;;5112176;27;20599;-52
2022/01/01 10:57:08;;;;;;;14.80;8.13;;;13.20;99.90;;;;;;5122210;27;20439;-52
2022/01/01 11:00:43;;;;;;;14.80;7.85;;;13.10;99.90;;;;;;5119872;27;20126;-52
2022/01/01 11:04:08;;;;;;;27.15;10.27;;;13.20;99.90;;;;;;5119434;27;20039;-47
2022/01/01 11:07:33;;;;;;;21.05;10.23;;;13.20;99.90;;;;;;5105750;28;20034;-49
2022/01/01 11:10:59;;;;;;;16.77;8.55;;;13.20;99.90;;;;;;5121934;27;20111;-49
2022/01/01 11:14:24;;;;;;;16.23;9.73;;;13.10;99.90;;;;;;5121891;27;20043;-46
2022/01/01 11:17:49;;;;;;;22.65;10.05;;;13.20;99.90;;;;;;5118724;27;20481;-48
2022/01/01 11:21:15;;;;;;;20.38;9.55;;;13.20;99.90;;;;;;5111007;27;20040;-49
2022/01/01 11:24:43;;;;;;;19.52;8.98;;;13.20;99.90;;;;;;5119268;27;20054;-49
2022/01/01 11:28:09;;;;;;;18.23;8.10;;;13.20;99.90;;;;;;5123037;27;20125;-52
2022/01/01 11:30:56;;;;;;;21.83;10.48;;;13.10;99.90;;;;;;5131018;27;20078;-51
2022/01/01 11:34:22;;;;;;;23.65;11.48;;;13.10;99.90;;;;;;5131355;27;20099;-49
2022/01/01 11:37:47;;;;;;;24.40;10.38;;;13.10;99.90;;;;;;5116779;27;20030;-52
2022/01/01 11:40:45;;;;;;;26.92;12.80;;;13.00;99.90;;;;;;5129157;27;20046;-48
2022/01/01 11:44:10;;;;;;;30.92;13.43;;;13.00;99.90;;;;;;5129109;27;20092;-53
2022/01/01 11:47:35;;;;;;;24.52;10.98;;;13.00;99.90;;;;;;5130901;27;20038;-52
2022/01/01 11:51:01;;;;;;;29.85;12.88;;;13.10;99.90;;;;;;5121849;27;20054;-51
2022/01/01 11:54:31;;;;;;;24.83;11.93;;;13.10;99.90;;;;;;5138835;27;20042;-50
2022/01/01 11:57:57;;;;;;;22.55;11.00;;;13.20;99.90;;;;;;5112980;27;20035;-50
2022/01/01 12:01:37;;;;;;;18.42;10.20;;;13.20;99.90;;;;;;5126541;27;20130;-48
2022/01/01 12:05:02;;;;;;;17.33;10.02;;;13.20;99.90;;;;;;5132090;27;20043;-50
2022/01/01 12:08:31;;;;;;;19.80;9.35;;;13.10;99.90;;;;;;5133851;27;20050;-50
2022/01/01 12:12:05;;;;;;;21.30;9.07;;;13.20;99.90;;;;;;5119882;27;20027;-48
2022/01/01 12:15:13;;;;;;;20.08;10.05;;;13.20;99.90;;;;;;5132478;27;20044;-48
2022/01/01 12:18:05;;;;;;;29.90;12.40;;;13.20;99.90;;;;;;5121876;27;20099;-50
2022/01/01 12:21:39;;;;;;;17.88;9.52;;;13.10;99.90;;;;;;5118593;27;20046;-49
2022/01/01 12:25:04;;;;;;;21.38;10.13;;;13.20;99.90;;;;;;5123184;27;20039;-49
2022/01/01 12:28:31;;;;;;;20.17;9.93;;;13.20;99.90;;;;;;5125712;27;20082;-48
2022/01/01 12:32:13;;;;;;;25.45;10.65;;;13.30;99.90;;;;;;5123784;27;20043;-52
2022/01/01 12:35:57;;;;;;;24.88;10.63;;;13.30;99.90;;;;;;5122382;28;20556;-48
2022/01/01 12:39:31;;;;;;;21.50;9.52;;;13.50;99.90;;;;;;5125967;28;20039;-48
2022/01/01 12:43:06;;;;;;;18.05;9.48;;;13.60;99.90;;;;;;5121227;28;20118;-49
2022/01/01 12:46:31;;;;;;;18.67;8.15;;;13.70;99.90;;;;;;5111819;28;20593;-50
2022/01/01 12:49:56;;;;;;;18.20;8.65;;;13.80;99.90;;;;;;5120218;28;20135;-47
2022/01/01 12:53:22;;;;;;;18.75;9.52;;;13.70;99.90;;;;;;5120304;28;20038;-61
2022/01/01 12:56:47;;;;;;;23.42;9.85;;;13.70;99.90;;;;;;5118724;28;20031;-61
2022/01/01 13:00:13;;;;;;;19.00;9.02;;;13.50;99.90;;;;;;5120572;28;20036;-61
2022/01/01 13:03:38;;;;;;;18.15;8.18;;;13.50;99.90;;;;;;5105522;28;20031;-61
2022/01/01 13:07:03;;;;;;;20.63;8.98;;;13.50;99.90;;;;;;5116623;28;20059;-61
2022/01/01 13:10:30;;;;;;;22.17;8.80;;;13.50;99.90;;;;;;5119681;28;20073;-61
2022/01/01 13:13:54;;;;;;;21.17;9.57;;;13.50;99.90;;;;;;5125617;28;20039;-61
2022/01/01 13:17:19;;;;;;;19.77;9.90;;;13.50;99.90;;;;;;5118213;28;20410;-61
2022/01/01 13:20:45;;;;;;;16.55;7.88;;;13.40;99.90;;;;;;5121937;28;20038;-61
2022/01/01 13:24:12;;;;;;;17.25;8.25;;;13.40;99.90;;;;;;5103366;28;20028;-61
2022/01/01 13:27:35;;;;;;;20.98;8.70;;;13.30;99.90;;;;;;5138093;27;20795;-61
2022/01/01 13:31:01;;;;;;;18.88;8.40;;;13.20;99.90;;;;;;5120906;27;20069;-61
2022/01/01 13:34:26;;;;;;;18.73;7.88;;;13.30;99.90;;;;;;5112172;27;20680;-61
2022/01/01 13:37:52;;;;;;;14.38;7.53;;;13.20;99.90;;;;;;5126988;27;20095;-61
2022/01/01 13:41:17;;;;;;;15.57;7.88;;;13.10;99.90;;;;;;5121880;27;20031;-61
2022/01/01 13:44:55;;;;;;;13.88;8.13;;;13.10;99.90;;;;;;5111069;27;20066;-61
2022/01/01 13:48:26;;;;;;;16.38;8.40;;;13.00;99.90;;;;;;5128951;27;20078;-61
2022/01/01 13:51:51;;;;;;;18.08;8.65;;;13.00;99.90;;;;;;5110611;27;20044;-61
2022/01/01 13:55:17;;;;;;;20.48;8.98;;;12.90;99.90;;;;;;5127427;27;20518;-61
2022/01/01 13:58:42;;;;;;;22.63;9.90;;;12.90;99.90;;;;;;5128767;27;20031;-61
2022/01/01 14:02:09;;;;;;;25.60;9.98;;;12.90;99.90;;;;;;5113608;27;20040;-61
2022/01/01 14:05:36;;;;;;;16.33;7.32;;;12.90;99.90;;;;;;5124630;27;20112;-60
2022/01/01 14:08:41;;;;;;;;;;;12.80;99.90;;;;;;5127524;27;20089;-61
2022/01/01 14:12:13;;;;;;;19.33;9.15;;;12.80;99.90;;;;;;5119679;27;19911;-61
2022/01/01 14:15:11;;;;;;;17.00;6.97;;;12.70;99.90;;;;;;5125006;27;20097;-61
2022/01/01 14:17:57;;;;;;;22.10;9.10;;;12.70;99.90;;;;;;5129054;27;20083;-62
2022/01/01 14:20:26;;;;;;;20.08;9.57;;;12.70;99.90;;;;;;5127054;27;20042;-62
2022/01/01 14:22:52;;;;;;;18.38;9.38;;;12.60;99.90;;;;;;5126876;27;20087;-60
2022/01/01 14:25:18;;;;;;;23.08;9.52;;;12.60;99.90;;;;;;5126792;27;20027;-62
2022/01/01 14:27:44;;;;;;;17.05;10.18;;;12.60;99.90;;;;;;5119955;27;20058;-61
2022/01/01 14:30:10;;;;;;;21.92;10.05;;;12.60;99.90;;;;;;5120441;27;20023;-61
2022/01/01 14:32:36;;;;;;;22.15;10.52;;;12.50;99.90;;;;;;5127911;27;20143;-61
2022/01/01 14:35:04;;;;;;;21.52;9.90;;;12.50;99.90;;;;;;5126093;27;20031;-61
2022/01/01 14:38:09;;;;;;;22.75;10.38;;;12.50;99.90;;;;;;5128339;27;20154;-61
2022/01/01 14:41:35;;;;;;;25.30;11.48;;;12.50;99.90;;;;;;5120502;27;20073;-61
2022/01/01 14:45:00;;;;;;;23.95;10.95;;;12.50;99.90;;;;;;5115773;27;20038;-61
2022/01/01 14:48:11;;;;;;;19.90;9.75;;;12.50;99.90;;;;;;5122179;27;20521;-62
2022/01/01 14:51:31;;;;;;;26.83;12.48;;;12.50;99.90;;;;;;5114677;27;20035;-61
2022/01/01 14:54:55;;;;;;;19.52;11.05;;;12.50;99.90;;;;;;5107527;28;20257;-61
2022/01/01 14:58:21;;;;;;;19.33;9.80;;;12.40;99.90;;;;;;5112649;27;20031;-61
2022/01/01 15:01:49;;;;;;;20.85;9.68;;;12.40;99.90;;;;;;5116807;27;20046;-61
2022/01/01 15:04:54;;;;;;;;;;;12.40;99.90;;;;;;5127235;27;20031;-61
2022/01/01 15:08:21;;;;;;;13.60;7.50;;;12.30;99.90;;;;;;5121812;27;19923;-61
2022/01/01 15:11:48;;;;;;;19.52;10.57;;;12.30;99.90;;;;;;5119779;27;20055;-61
2022/01/01 15:14:53;;;;;;;;;;;12.30;99.90;;;;;;5127947;27;20552;-61
2022/01/01 15:18:19;;;;;;;20.73;9.25;;;12.20;99.90;;;;;;5109345;27;19965;-61
2022/01/01 15:21:50;;;;;;;25.35;11.40;;;12.20;99.90;;;;;;5123713;27;20039;-61
2022/01/01 15:25:18;;;;;;;14.77;9.05;;;12.20;99.90;;;;;;5124237;27;20031;-61
2022/01/01 15:28:24;;;;;;;;;;;12.10;99.90;;;;;;5123774;27;20051;-61
2022/01/01 15:35:41;;;;;;;17.95;8.80;;;12.10;99.90;;;;;;5127168;27;20562;-60
2022/01/01 15:39:04;;;;;;;20.65;9.73;;;12.00;99.90;;;;;;5119185;27;20035;-62
2022/01/01 15:42:26;;;;;;;20.60;10.05;;;11.90;99.90;;;;;;5118166;27;20031;-61
2022/01/01 15:45:50;;;;;;;18.92;9.40;;;11.90;99.90;;;;;;5108511;27;20063;-60
2022/01/01 15:49:15;;;;;;;30.30;12.13;;;11.80;99.90;;;;;;5121886;27;20047;-61
2022/01/01 15:52:41;;;;;;;16.58;9.13;;;11.80;99.90;;;;;;5115449;27;20465;-61
2022/01/01 15:55:46;;;;;;;20.67;9.85;;;11.80;99.90;;;;;;5124277;27;20039;-61
2022/01/01 15:59:11;;;;;;;16.13;9.68;;;11.80;99.90;;;;;;5121375;27;20043;-61
2022/01/01 16:02:20;;;;;;;22.70;11.32;;;11.80;99.90;;;;;;5118909;27;20058;-60
2022/01/01 16:06:03;;;;;;;22.55;9.93;;;11.90;99.90;;;;;;5126036;27;20039;-61
2022/01/01 16:09:35;;;;;;;29.55;12.00;;;11.80;99.90;;;;;;5115131;27;20055;-61
2022/01/01 16:13:00;;;;;;;28.27;12.73;;;11.80;99.90;;;;;;5124128;27;20027;-61
2022/01/01 16:16:29;;;;;;;27.27;10.90;;;11.90;99.90;;;;;;5110309;27;20720;-61
2022/01/01 16:19:51;;;;;;;32.42;15.25;;;11.90;99.90;;;;;;5121433;27;20091;-64
2022/01/01 16:23:16;;;;;;;19.13;10.30;;;11.80;99.90;;;;;;5125861;27;20046;-64
2022/01/01 16:26:44;;;;;;;18.95;10.98;;;11.80;99.90;;;;;;5120185;27;20046;-64
2022/01/01 16:29:50;;;;;;;;;;;11.80;99.90;;;;;;5112306;27;20048;-65
2022/01/01 16:33:15;;;;;;;24.00;10.52;;;11.80;99.90;;;;;;5119663;27;20026;-66